Terminal Aerodrome Forecast
Issued by NWS

Home | Current Version | Previous Version | Text Only | Print | Product List | Glossary On
Versions: 1 2 3 4 5 6 7 8 9 10 11 12 13 14 15 16 17 18 19 20 21 22 23 24 25 26 27 28 29 30 31 32 33 34 35 36
000
FTUS43 KDVN 290520
TAFBRL
TAF
KBRL 290520Z 2906/3006 16009KT P6SM VCSH OVC060
     FM291000 18005KT 4SM BR OVC025
     FM291500 18006KT P6SM BKN025
     FM292100 15006KT P6SM VCSH BKN040=

USA.gov is the U.S. government's official web portal to all federal, state and local government web resources and services.